ADDS METAR Data INFO
IDs: Format: Raw Decoded Include TAF

Data at: 1237 UTC 22 Feb 2018

PADL 221220Z AUTO VRB06KT 1 1/2SM -RA BR OVC003 01/01 A3013 RMK AO2 RAB17 P0000 FZRANO
PADL 221213Z AUTO VRB05KT 2SM BR OVC003 01/01 A3013 RMK AO2 FZRANO
PADL 221206Z AUTO VRB05KT 1 3/4SM BR OVC003 01/01 A3013 RMK AO2 FZRANO
PADL 221156Z AUTO VRB05KT 1SM BR OVC003 01/01 A3013 RMK AO2 SLP208 60012 70015 T00060006 10017 20006 56010 FZRANO
PADL 221149Z AUTO VRB06KT 3/4SM BR OVC003 01/01 A3013 RMK AO2 FZRANO
PADL 221134Z AUTO VRB05KT 1 1/2SM BR OVC003 01/01 A3013 RMK AO2 FZRANO
PADL 221127Z AUTO VRB04KT 2SM BR OVC003 01/01 A3014 RMK AO2 FZRANO
PADL 221114Z AUTO VRB05KT 1 1/4SM BR OVC003 01/01 A3013 RMK AO2 FZRANO
PADL 221056Z AUTO VRB05KT 1SM BR OVC003 01/01 A3013 RMK AO2 RAE0958 SLP210 P0000 T00060006 FZRANO
PADL 221019Z AUTO VRB06KT 3/4SM BR OVC003 01/01 A3015 RMK AO2 RAE0958 P0000 FZRANO
PADL 221006Z AUTO VRB05KT 1 3/4SM BR OVC003 01/01 A3015 RMK AO2 RAE0958 P0000 FZRANO
PADL 220956Z AUTO 21006KT 8SM -RA OVC003 01/01 A3015 RMK AO2 SLP214 P0002 T00110011 FZRANO
PADL 220856Z AUTO 20006KT 10SM -RA OVC003 01/01 A3016 RMK AO2 SLP219 P0005 60010 T00110011 400281039 56016 FZRANO
PADL 220756Z AUTO VRB05KT 6SM RA BR OVC003 01/01 A3017 RMK AO2 SLP222 P0002 T00110011 FZRANO
PADL 220738Z AUTO 20005KT 5SM -RA BR OVC003 01/01 A3017 RMK AO2 P0001 FZRANO
PADL 220731Z AUTO 19006KT 2 1/2SM -RA BR OVC003 01/01 A3017 RMK AO2 VIS 1 3/4V5 P0001 FZRANO
PADL 220707Z AUTO 18006KT 1 1/4SM -RA BR OVC003 01/00 A3018 RMK AO2 P0000 FZRANO
PADL 220656Z AUTO 18006KT 2 1/2SM -RA BR OVC003 01/01 A3018 RMK AO2 UPB39E40SNB40E49 SLP226 P0003 T00060006 FZRANO
PADL 220642Z AUTO 19006KT 3SM -SN BR OVC003 01/01 A3019 RMK AO2 RAE39UPB39E40SNB40 P0002 FZRANO
PADL 220610Z AUTO 18007KT 2 1/2SM -RA BR OVC003 01/01 A3020 RMK AO2 P0001 FZRANO
PADL 220556Z AUTO 18006KT 1 3/4SM -RA BR OVC003 01/00 A3021 RMK AO2 SNB22E51 SLP234 P0002 60003 T00060000 10028 20006 58010 FZRANO
PADL 220543Z 18007KT 1 1/4SM -SN BR OVC003 01/00 A3021 RMK AO2 RAE39SNB22 P0002
PADL 220535Z 18006KT 3/4SM -RA BR OVC003 01/01 A3021 RMK AO2 SNB22E34 P0002
PADL 220524Z 18008KT 1SM -SN BR OVC003 01/01 A3021 RMK AO2 RAE22SNB22 P0001
PADL 220512Z 18007KT 3/4SM -RA BR OVC003 01/00 A3022 RMK AO2 P0001
PADL 220505Z 18008KT 1 3/4SM -RA BR OVC003 01/01 A3022 RMK AO2 P0001
PADL 220456Z 19006KT 3SM -RA BR OVC003 01/01 A3022 RMK AO2 SLP240 P0001 T00110006
PADL 220453Z 19007KT 3SM -RA BR OVC003 01/01 A3022 RMK AO2 P0001
PADL 220356Z 19005KT 10SM -RA OVC005 01/01 A3024 RMK AO2 UPB14E26RAB26 SLP244 P0000 T00110006
PADL 212356Z 19005KT 10SM OVC018 02/01 A3031 RMK AO2 SLP269 T00220006 10022 21039 56017
PADL 212328Z 18004KT 10SM BKN018 02/01 A3031 RMK AO2
PADL 212256Z 12004KT 10SM OVC055 02/01 A3031 RMK AO2 SLP271 T00170006
PADL 212156Z 09003KT 10SM SCT005 OVC042 02/01 A3034 RMK AO2 SLP280 T00170006
PADL 212056Z 00000KT 10SM CLR 01/00 A3036 RMK AO2 SLP285 T00060000 56007
PADL 211956Z 00000KT 10SM CLR M02/M02 A3036 RMK AO2 SLP286 T10171017
PADL 211856Z 01003KT 6SM BR CLR M04/M04 A3036 RMK AO2 SLP288 MIFG ALONG RIVER T10391044
PADL 211809Z 34003KT 4SM BR CLR M04/M04 A3038 RMK AO2
PADL 211802Z 00000KT 2SM BR SCT000 M04/M04 A3038 RMK AO2 SCT000 FG
PADL 211756Z 00000KT 1SM BR BKN000 M03/M04 A3038 RMK AO2 SLP293 BKN000 FG 60000 T10331039 11017 21033 55000
PADL 211710Z 00000KT 1SM BR VV004 M02/M03 A3037 RMK AO2
PADL 211703Z 00000KT 1/2SM BR OVC002 M02/M03 A3037 RMK AO2
PADL 211656Z 01003KT 1SM BR VV004 M02/M03 A3037 RMK AO2 SLP289 T10221028
PADL 211651Z 35003KT 1SM BR VV004 M02/M03 A3037 RMK AO2
PADL 211644Z AUTO 00000KT 1/2SM FZFG OVC002 M02/M03 A3037 RMK AO2 FZRANO
PADL 211632Z AUTO 00000KT 3/4SM BR OVC002 M02/M03 A3037 RMK AO2 FZRANO
PADL 211624Z AUTO 03003KT 1 3/4SM BR OVC002 M02/M03 A3037 RMK AO2 VIS 1V3 FZRANO
PADL 211604Z AUTO 00000KT 4SM BR OVC002 M02/M02 A3037 RMK AO2 FZRANO
PADL 211556Z AUTO 05003KT 4SM BR OVC004 M02/M02 A3038 RMK AO2 SLP293 T10171022 FZRANO
PADL 211522Z AUTO 05003KT 3SM BR OVC004 M02/M02 A3038 RMK AO2 FZRANO
PADL 211512Z AUTO 00000KT 2 1/2SM BR OVC004 M02/M02 A3039 RMK AO2 VIS 1 3/4V3 FZRANO
PADL 211505Z AUTO 07003KT 1 3/4SM BR OVC004 M02/M02 A3039 RMK AO2 FZRANO
PADL 211456Z AUTO 07003KT 1SM BR OVC004 M02/M03 A3039 RMK AO2 SNB21E35 SLP295 P0000 60000 T10221028 58020 FZRANO
PADL 211452Z AUTO 08003KT 3/4SM BR OVC004 M02/M03 A3039 RMK AO2 SNB21E35 P0000 FZRANO
PADL 211431Z AUTO 00000KT 1/2SM -SN FZFG OVC002 M02/M03 A3039 RMK AO2 SNB21 P0000 FZRANO
PADL 211421Z AUTO 07004KT 1/4SM -SN FZFG OVC002 M02/M03 A3040 RMK AO2 SNB21 P0000 FZRANO
PADL 211410Z AUTO 04004KT 1/2SM FZFG OVC002 M02/M03 A3040 RMK AO2 CIG 002V005 FZRANO
PADL 211401Z AUTO 02003KT 3/4SM BR OVC004 M02/M03 A3041 RMK AO2 CIG 002V005 FZRANO
PADL 211356Z AUTO 35003KT 1 1/2SM BR OVC004 M02/M03 A3041 RMK AO2 SLP305 T10221028 FZRANO
PADL 211335Z AUTO 01003KT 10SM BKN004 M02/M03 A3042 RMK AO2 CIG 002V007 FZRANO
PADL 211306Z AUTO 36003KT 10SM SCT002 OVC037 M02/M02 A3043 RMK AO2 FZRANO
PADL 211256Z AUTO 00000KT 10SM BKN002 OVC037 M02/M02 A3043 RMK AO2 SLP310 T10171022 FZRANO
PADL 211230Z AUTO 01005KT 10SM BKN002 M02/M02 A3043 RMK AO2 FZRANO
PADL 210756Z AUTO 04005KT 10SM OVC055 M01/M02 A3050 RMK AO2 SLP334 T10111022 FZRANO
PADL 210656Z AUTO 00000KT 10SM BKN070 OVC090 M01/M02 A3051 RMK AO2 SLP338 T10111022 FZRANO
PADL 210556Z AUTO 06003KT 10SM OVC100 M01/M02 A3051 RMK AO2 SLP338 60000 T10111022 10022 21017 56011 FZRANO